Time;durP1;ratioP1;P1;durP2;ratioP2;P2;SDS_P1;SDS_P2;PMS_P1;PMS_P2;Temp;Humidity;BMP_temperature;BMP_pressure;BME280_temperature;BME280_humidity;BME280_pressure;Samples;Min_cycle;Max_cycle;Signal;HPM_P1;HPM_P2
2021/09/01 00:01:32;;;;;;;9.65;6.03;;;18.20;66.60;;;;;;5054570;28;20021;-70
2021/09/01 00:03:58;;;;;;;8.52;6.65;;;18.10;66.90;;;;;;5054645;28;20033;-70
2021/09/01 00:06:24;;;;;;;8.80;6.28;;;18.10;67.30;;;;;;5055308;28;20493;-70
2021/09/01 00:08:51;;;;;;;6.85;5.68;;;18.00;67.40;;;;;;5054910;28;20029;-70
2021/09/01 00:11:19;;;;;;;7.90;6.72;;;17.90;67.50;;;;;;5054984;28;20027;-70
2021/09/01 00:13:45;;;;;;;8.52;6.10;;;17.90;67.80;;;;;;5055092;28;20025;-70
2021/09/01 00:16:25;;;;;;;10.18;5.95;;;17.90;67.90;;;;;;5055098;28;20030;-70
2021/09/01 00:19:04;;;;;;;7.78;6.50;;;17.80;67.90;;;;;;5055109;28;20021;-70
2021/09/01 00:21:30;;;;;;;8.75;6.97;;;17.70;68.00;;;;;;5037080;28;20466;-70
2021/09/01 00:23:56;;;;;;;13.75;6.90;;;17.70;68.20;;;;;;5055258;28;20031;-70
2021/09/01 00:26:22;;;;;;;8.10;6.55;;;17.70;68.40;;;;;;5054957;28;20489;-70
2021/09/01 00:28:49;;;;;;;9.13;6.70;;;17.60;68.40;;;;;;5054796;28;20025;-70
2021/09/01 00:31:15;;;;;;;8.38;6.68;;;17.60;68.50;;;;;;5015041;28;20061;-70
2021/09/01 00:33:41;;;;;;;11.00;7.15;;;17.50;68.60;;;;;;5014480;28;20033;-70
2021/09/01 00:36:07;;;;;;;10.27;7.10;;;17.50;68.80;;;;;;5034517;28;20029;-70
2021/09/01 00:38:33;;;;;;;8.80;6.82;;;17.50;68.90;;;;;;5034800;28;20075;-70
2021/09/01 00:40:59;;;;;;;11.60;6.88;;;17.50;69.00;;;;;;5031308;28;20045;-70
2021/09/01 00:43:25;;;;;;;8.75;6.95;;;17.40;69.10;;;;;;5034671;28;20128;-70
2021/09/01 00:45:51;;;;;;;9.80;6.63;;;17.30;69.20;;;;;;5034599;28;20028;-70
2021/09/01 00:48:21;;;;;;;10.40;7.20;;;17.30;69.30;;;;;;5028809;28;20380;-70
2021/09/01 00:50:58;;;;;;;9.43;6.38;;;17.30;69.40;;;;;;5014745;28;20052;-70
2021/09/01 00:53:28;;;;;;;12.45;7.65;;;17.30;69.50;;;;;;5014662;28;20022;-70
2021/09/01 00:55:56;;;;;;;9.70;7.53;;;17.20;69.50;;;;;;5014666;28;20431;-70
2021/09/01 00:58:22;;;;;;;13.13;6.88;;;17.20;69.70;;;;;;5014647;28;20037;-70
2021/09/01 01:03:34;;;;;;;11.10;7.47;;;17.20;69.80;;;;;;5014586;28;20494;-70
2021/09/01 01:06:00;;;;;;;10.20;7.25;;;17.20;69.80;;;;;;5014438;28;20038;-70
2021/09/01 01:08:30;;;;;;;9.00;6.95;;;17.10;69.80;;;;;;5014452;28;20064;-70
2021/09/01 01:10:59;;;;;;;9.10;6.07;;;17.10;69.80;;;;;;5014118;28;20367;-70
2021/09/01 01:13:27;;;;;;;11.63;6.80;;;17.10;70.00;;;;;;5013960;28;20026;-70
2021/09/01 01:15:53;;;;;;;9.02;6.85;;;17.00;70.00;;;;;;5014256;28;20026;-70
2021/09/01 01:18:19;;;;;;;10.43;7.43;;;17.00;70.10;;;;;;5020070;28;20045;-70
2021/09/01 01:20:49;;;;;;;12.40;7.25;;;17.00;70.00;;;;;;5033928;28;20053;-70
2021/09/01 01:23:16;;;;;;;9.20;7.10;;;16.90;70.10;;;;;;5033934;28;20018;-70
2021/09/01 01:25:42;;;;;;;13.13;6.45;;;16.90;70.00;;;;;;5033828;28;20466;-70
2021/09/01 01:28:09;;;;;;;9.13;6.75;;;16.90;70.20;;;;;;5033734;28;20025;-70
2021/09/01 01:30:37;;;;;;;11.27;7.03;;;16.90;70.30;;;;;;5062915;28;20135;-69
2021/09/01 01:33:04;;;;;;;12.23;7.63;;;16.80;70.50;;;;;;5072852;28;20028;-69
2021/09/01 01:35:42;;;;;;;14.07;7.25;;;16.80;70.70;;;;;;5051138;28;20059;-70
2021/09/01 01:38:10;;;;;;;10.10;6.68;;;16.80;70.80;;;;;;5053137;28;20075;-70
2021/09/01 01:40:37;;;;;;;13.73;8.07;;;16.70;70.70;;;;;;5035669;28;20055;-70
2021/09/01 01:43:04;;;;;;;7.78;6.80;;;16.70;71.00;;;;;;5053453;28;20021;-70
2021/09/01 01:45:44;;;;;;;14.93;7.07;;;16.60;71.00;;;;;;5053382;28;20021;-70
2021/09/01 01:48:11;;;;;;;11.25;8.18;;;16.60;71.00;;;;;;5053294;28;20029;-70
2021/09/01 01:50:38;;;;;;;11.48;6.78;;;16.60;71.20;;;;;;5053283;28;20036;-70
2021/09/01 01:53:05;;;;;;;11.52;8.18;;;16.50;71.10;;;;;;5053246;28;20032;-70
2021/09/01 01:55:32;;;;;;;9.40;7.18;;;16.50;71.30;;;;;;5053131;28;20040;-69
2021/09/01 01:57:58;;;;;;;10.38;7.53;;;16.40;71.40;;;;;;5053192;28;20055;-70
2021/09/01 02:00:23;;;;;;;16.45;7.60;;;16.40;71.50;;;;;;5052717;28;20048;-70
2021/09/01 02:02:49;;;;;;;11.63;7.30;;;16.40;71.50;;;;;;5053116;28;20029;-70
2021/09/01 02:05:15;;;;;;;13.73;7.93;;;16.30;71.60;;;;;;5053393;28;20021;-70
2021/09/01 02:07:41;;;;;;;13.57;7.63;;;16.30;71.70;;;;;;5053044;28;20040;-70
2021/09/01 02:10:09;;;;;;;8.50;7.13;;;16.30;71.80;;;;;;5052774;28;20028;-69
2021/09/01 02:12:36;;;;;;;13.00;7.20;;;16.20;71.80;;;;;;5052203;28;20025;-69
2021/09/01 02:15:04;;;;;;;12.75;8.10;;;16.20;71.90;;;;;;5053093;28;20030;-69
2021/09/01 02:17:30;;;;;;;9.93;8.23;;;16.20;72.00;;;;;;5051742;28;20021;-69
2021/09/01 02:19:56;;;;;;;10.43;7.18;;;16.20;72.00;;;;;;5053032;28;20071;-70
2021/09/01 02:22:23;;;;;;;9.07;7.63;;;16.10;72.00;;;;;;5052926;28;20505;-70
2021/09/01 02:24:48;;;;;;;10.82;7.20;;;16.10;72.00;;;;;;5052333;28;20104;-70
2021/09/01 02:27:15;;;;;;;10.13;7.53;;;16.20;72.00;;;;;;5056136;28;20111;-70
2021/09/01 02:29:41;;;;;;;8.50;6.70;;;16.10;72.00;;;;;;5054765;28;20052;-70
2021/09/01 02:32:10;;;;;;;9.60;6.57;;;16.10;72.10;;;;;;5072944;28;20059;-69
2021/09/01 02:34:36;;;;;;;14.25;7.32;;;16.00;72.00;;;;;;5072854;28;20028;-70
2021/09/01 02:37:02;;;;;;;19.58;6.20;;;16.00;72.10;;;;;;5054982;28;20020;-70
2021/09/01 02:39:28;;;;;;;9.25;6.82;;;16.00;72.30;;;;;;5072922;28;20448;-70
2021/09/01 02:41:54;;;;;;;10.05;7.25;;;15.90;72.30;;;;;;5072822;28;20020;-70
2021/09/01 02:44:20;;;;;;;16.55;6.30;;;15.90;72.40;;;;;;5072863;28;20042;-70
2021/09/01 02:46:46;;;;;;;14.40;6.28;;;15.90;72.40;;;;;;5056177;28;20033;-70
2021/09/01 02:49:13;;;;;;;19.17;6.35;;;15.90;72.60;;;;;;5052782;28;20039;-70
2021/09/01 02:51:39;;;;;;;35.78;7.38;;;15.80;72.70;;;;;;5052793;28;20029;-70
2021/09/01 02:54:05;;;;;;;68.72;7.65;;;15.80;72.70;;;;;;5052682;28;20025;-70
2021/09/01 02:56:31;;;;;;;16.63;6.50;;;15.80;72.90;;;;;;5034593;28;20394;-69
2021/09/01 02:58:57;;;;;;;21.90;7.50;;;15.80;73.00;;;;;;5052688;28;20055;-70
2021/09/01 03:01:23;;;;;;;14.90;7.50;;;15.80;73.10;;;;;;5052616;28;20045;-70
2021/09/01 03:03:49;;;;;;;16.20;6.97;;;15.70;73.10;;;;;;5052746;28;20025;-69
2021/09/01 03:06:15;;;;;;;21.02;6.80;;;15.80;73.20;;;;;;5052619;28;20021;-69
2021/09/01 03:08:41;;;;;;;35.40;7.57;;;15.80;73.20;;;;;;5052595;28;20036;-69
2021/09/01 03:11:07;;;;;;;10.77;6.97;;;15.70;73.20;;;;;;5052537;28;20029;-70
2021/09/01 03:13:33;;;;;;;17.30;6.82;;;15.70;73.30;;;;;;5052415;28;20390;-69
2021/09/01 03:15:59;;;;;;;10.18;6.80;;;15.70;73.30;;;;;;5052514;28;20470;-70
2021/09/01 03:18:25;;;;;;;12.07;6.40;;;15.70;73.40;;;;;;5052255;28;20040;-69
2021/09/01 03:20:51;;;;;;;11.15;6.50;;;15.70;73.40;;;;;;5052376;28;20036;-69
2021/09/01 03:23:17;;;;;;;8.70;6.78;;;15.70;73.40;;;;;;5052431;28;20025;-70
2021/09/01 03:25:44;;;;;;;8.38;7.13;;;15.60;73.30;;;;;;5034468;28;20032;-69
2021/09/01 03:28:10;;;;;;;10.85;7.82;;;15.60;73.30;;;;;;5051971;28;20028;-69
2021/09/01 03:30:36;;;;;;;9.02;7.47;;;15.60;73.20;;;;;;5051825;28;20124;-69
2021/09/01 03:33:02;;;;;;;9.23;7.20;;;15.60;73.10;;;;;;5052094;28;20449;-69
2021/09/01 03:35:28;;;;;;;14.07;7.97;;;15.60;73.10;;;;;;5034174;28;20029;-70
2021/09/01 03:37:54;;;;;;;14.65;8.15;;;15.60;73.10;;;;;;5037425;28;20104;-69
2021/09/01 03:40:20;;;;;;;12.05;8.02;;;15.60;73.10;;;;;;5057048;28;20056;-69
2021/09/01 03:42:46;;;;;;;15.32;9.15;;;15.60;73.00;;;;;;5075829;28;20024;-70
2021/09/01 03:45:12;;;;;;;10.75;8.48;;;15.60;73.10;;;;;;5060294;28;20086;-70
2021/09/01 03:47:38;;;;;;;10.85;8.10;;;15.60;73.10;;;;;;5055603;28;20024;-69
2021/09/01 03:50:09;;;;;;;10.02;7.72;;;15.60;73.00;;;;;;5055637;28;20443;-69
2021/09/01 03:52:35;;;;;;;8.88;7.15;;;15.60;73.00;;;;;;5055376;28;20386;-69
2021/09/01 03:55:02;;;;;;;10.20;7.90;;;15.60;72.90;;;;;;5037514;28;20025;-70
2021/09/01 03:57:28;;;;;;;13.45;7.78;;;15.60;72.90;;;;;;5055603;28;20013;-69
2021/09/01 03:59:54;;;;;;;11.25;8.00;;;15.50;72.80;;;;;;5055543;28;20127;-70
2021/09/01 04:02:20;;;;;;;10.50;8.13;;;15.60;72.80;;;;;;5052719;28;20025;-69
2021/09/01 04:04:45;;;;;;;12.85;7.72;;;15.60;72.70;;;;;;5059724;28;20052;-70
2021/09/01 04:07:11;;;;;;;12.48;9.05;;;15.60;72.70;;;;;;5055260;28;20041;-70
2021/09/01 04:09:37;;;;;;;11.80;8.45;;;15.50;72.60;;;;;;5055364;28;20037;-69
2021/09/01 04:12:03;;;;;;;11.43;8.93;;;15.50;72.70;;;;;;5055279;28;20036;-69
2021/09/01 04:14:29;;;;;;;10.75;7.78;;;15.50;72.70;;;;;;5055261;28;20023;-70
2021/09/01 04:16:55;;;;;;;12.27;8.65;;;15.50;72.70;;;;;;5055139;28;20021;-70
2021/09/01 04:19:20;;;;;;;12.45;7.78;;;15.50;72.60;;;;;;5055123;28;20029;-70
2021/09/01 04:21:46;;;;;;;10.05;8.00;;;15.50;72.50;;;;;;5055119;28;20075;-70
2021/09/01 04:24:12;;;;;;;12.48;8.65;;;15.50;72.40;;;;;;5036969;28;20432;-70
2021/09/01 04:26:38;;;;;;;15.13;10.25;;;15.50;72.40;;;;;;5055046;28;20036;-70
2021/09/01 04:29:03;;;;;;;11.23;8.98;;;15.50;72.40;;;;;;5054663;28;20028;-70
2021/09/01 04:31:29;;;;;;;21.08;8.52;;;15.40;72.40;;;;;;5054966;28;20021;-70
2021/09/01 04:33:55;;;;;;;15.45;9.15;;;15.50;72.40;;;;;;5054563;28;20056;-69
2021/09/01 04:36:21;;;;;;;12.15;8.40;;;15.50;72.40;;;;;;5054793;28;20100;-70
2021/09/01 04:38:47;;;;;;;10.95;8.45;;;15.50;72.40;;;;;;5054835;28;20424;-70
2021/09/01 04:41:12;;;;;;;11.38;9.00;;;15.40;72.30;;;;;;5063495;28;20028;-70
2021/09/01 04:43:39;;;;;;;11.75;8.40;;;15.50;72.30;;;;;;5042792;28;20506;-70
2021/09/01 04:46:05;;;;;;;10.85;8.52;;;15.40;72.20;;;;;;5054688;28;20463;-70
2021/09/01 04:48:31;;;;;;;13.15;9.00;;;15.50;72.30;;;;;;5053773;28;20036;-70
2021/09/01 04:50:56;;;;;;;10.98;8.40;;;15.50;72.20;;;;;;5054507;28;20029;-70
2021/09/01 04:53:22;;;;;;;10.05;7.95;;;15.50;72.20;;;;;;5054222;28;20104;-71
2021/09/01 04:55:48;;;;;;;13.65;9.60;;;15.50;72.20;;;;;;5053127;28;20029;-71
2021/09/01 04:58:14;;;;;;;18.25;10.30;;;15.50;72.10;;;;;;5054415;28;20028;-70
2021/09/01 05:00:40;;;;;;;18.40;11.07;;;15.50;72.00;;;;;;5053035;28;20381;-70
2021/09/01 05:03:06;;;;;;;14.65;10.98;;;15.50;72.10;;;;;;5054312;28;20096;-71
2021/09/01 05:05:32;;;;;;;14.25;10.88;;;15.50;72.10;;;;;;5054205;28;20083;-71
2021/09/01 05:07:59;;;;;;;17.30;10.52;;;15.50;72.00;;;;;;5049178;28;20036;-71
2021/09/01 05:10:25;;;;;;;19.23;11.20;;;15.60;72.10;;;;;;5054176;28;20025;-71
2021/09/01 05:12:51;;;;;;;24.45;13.52;;;15.60;72.00;;;;;;5065195;28;20032;-71
2021/09/01 05:15:19;;;;;;;16.48;11.55;;;15.60;72.00;;;;;;5067104;28;20033;-71
2021/09/01 05:17:45;;;;;;;18.63;10.52;;;15.60;72.00;;;;;;5073954;28;20024;-71
2021/09/01 05:20:12;;;;;;;14.93;11.10;;;15.60;71.90;;;;;;5073712;28;20390;-71
2021/09/01 05:22:39;;;;;;;20.98;13.05;;;15.70;71.80;;;;;;5067832;28;20032;-71
2021/09/01 05:25:08;;;;;;;19.02;12.68;;;15.70;71.70;;;;;;5052609;28;20029;-70
2021/09/01 05:27:42;;;;;;;26.35;16.33;;;15.70;71.70;;;;;;5054350;28;20029;-71
2021/09/01 05:30:14;;;;;;;24.38;16.27;;;15.70;71.60;;;;;;5065240;28;20048;-70
2021/09/01 05:32:47;;;;;;;22.95;13.13;;;15.70;71.60;;;;;;5053449;28;20029;-70
2021/09/01 05:35:13;;;;;;;17.02;10.15;;;15.80;71.60;;;;;;5053231;28;20025;-71
2021/09/01 05:37:39;;;;;;;12.65;9.50;;;15.80;71.50;;;;;;5053360;28;20458;-71
2021/09/01 05:40:08;;;;;;;16.67;8.05;;;15.80;71.40;;;;;;5053358;28;20021;-71
2021/09/01 05:42:34;;;;;;;14.18;8.98;;;15.80;71.40;;;;;;5053075;28;20021;-71
2021/09/01 05:45:03;;;;;;;15.45;9.95;;;15.80;71.30;;;;;;5052833;28;20584;-72
2021/09/01 05:47:29;;;;;;;19.85;9.88;;;15.80;71.20;;;;;;5053309;28;20025;-72
2021/09/01 05:49:57;;;;;;;22.55;10.90;;;15.90;71.30;;;;;;5053075;28;20100;-72
2021/09/01 05:52:25;;;;;;;17.33;10.68;;;15.90;71.40;;;;;;5053444;28;20029;-72
2021/09/01 05:54:52;;;;;;;13.68;10.10;;;15.90;71.50;;;;;;5053296;28;20420;-72
2021/09/01 05:57:20;;;;;;;13.82;8.88;;;15.90;71.50;;;;;;5053097;28;20023;-72
2021/09/01 05:59:56;;;;;;;11.93;8.05;;;15.90;71.50;;;;;;5031287;28;20021;-72
2021/09/01 06:02:29;;;;;;;10.93;8.23;;;15.90;71.40;;;;;;5053589;28;20024;-71
2021/09/01 06:04:59;;;;;;;12.60;8.38;;;16.00;71.40;;;;;;5053307;28;20378;-72
2021/09/01 06:07:27;;;;;;;10.27;7.97;;;16.00;71.50;;;;;;5052864;28;20513;-72
2021/09/01 06:09:58;;;;;;;13.80;8.85;;;16.10;71.60;;;;;;5053189;28;20029;-72
2021/09/01 06:12:26;;;;;;;12.93;8.43;;;16.20;71.70;;;;;;5052109;28;20117;-73
2021/09/01 06:14:53;;;;;;;13.45;9.32;;;16.20;71.60;;;;;;5034989;28;20048;-72
2021/09/01 06:17:19;;;;;;;14.18;9.05;;;16.30;71.50;;;;;;5053032;28;20462;-73
2021/09/01 06:19:45;;;;;;;23.42;12.20;;;16.40;71.40;;;;;;5032934;28;20143;-73
2021/09/01 06:22:12;;;;;;;16.67;10.75;;;16.50;71.30;;;;;;5052398;28;20158;-73
2021/09/01 06:24:38;;;;;;;14.82;9.70;;;16.50;71.10;;;;;;5051512;28;20029;-72
2021/09/01 06:27:04;;;;;;;14.85;8.75;;;16.60;70.90;;;;;;5032585;28;20037;-73
2021/09/01 06:29:30;;;;;;;11.93;8.60;;;16.70;70.90;;;;;;5030536;28;20041;-73
2021/09/01 06:31:56;;;;;;;13.20;8.77;;;16.80;70.70;;;;;;5032743;28;20108;-73
2021/09/01 06:34:23;;;;;;;11.43;8.55;;;16.80;69.80;;;;;;5032817;28;20018;-73
2021/09/01 06:36:48;;;;;;;13.10;8.35;;;16.80;69.80;;;;;;5031288;28;20028;-73
2021/09/01 06:39:14;;;;;;;11.15;7.93;;;16.90;69.20;;;;;;5030882;28;20391;-73
2021/09/01 06:41:41;;;;;;;12.20;8.45;;;16.90;68.80;;;;;;5032507;28;20521;-73
2021/09/01 06:44:07;;;;;;;12.45;8.70;;;17.00;68.70;;;;;;5031550;28;20022;-73
2021/09/01 06:46:33;;;;;;;12.77;7.35;;;17.00;68.40;;;;;;5032735;28;20051;-73
2021/09/01 06:48:59;;;;;;;11.27;8.10;;;17.10;68.30;;;;;;5031651;28;20443;-73
2021/09/01 06:51:24;;;;;;;10.10;7.93;;;17.20;68.00;;;;;;5032723;28;20101;-73
2021/09/01 06:53:50;;;;;;;9.77;7.30;;;17.20;67.90;;;;;;5031463;28;20034;-73
2021/09/01 06:56:16;;;;;;;10.23;7.00;;;17.30;67.90;;;;;;5032737;28;20068;-73
2021/09/01 06:58:42;;;;;;;10.55;6.70;;;17.30;67.70;;;;;;5032648;28;20018;-73
2021/09/01 07:01:07;;;;;;;8.15;6.38;;;17.40;67.30;;;;;;5031410;28;20482;-73
2021/09/01 07:03:33;;;;;;;7.65;5.72;;;17.40;67.30;;;;;;5032634;28;20041;-73
2021/09/01 07:05:59;;;;;;;9.90;5.90;;;17.50;67.10;;;;;;5032537;28;20025;-73
2021/09/01 07:08:28;;;;;;;9.98;6.90;;;17.60;66.80;;;;;;5032711;28;20024;-73
2021/09/01 07:10:54;;;;;;;7.72;6.07;;;17.70;66.30;;;;;;5031461;28;20049;-73
2021/09/01 07:13:20;;;;;;;8.10;5.55;;;17.70;66.50;;;;;;5035334;28;20455;-73
2021/09/01 07:15:45;;;;;;;10.43;5.53;;;17.80;66.50;;;;;;5036434;28;20068;-73
2021/09/01 07:18:15;;;;;;;6.70;5.28;;;17.90;66.80;;;;;;5035219;28;20053;-74
2021/09/01 07:20:41;;;;;;;8.52;5.50;;;17.90;66.40;;;;;;5036197;28;20029;-73
2021/09/01 07:23:07;;;;;;;9.45;6.13;;;18.00;66.10;;;;;;5034871;28;20032;-73
2021/09/01 07:25:33;;;;;;;7.72;5.75;;;18.10;65.60;;;;;;5036196;28;20025;-73
2021/09/01 07:28:04;;;;;;;7.30;5.93;;;18.20;65.20;;;;;;5036360;28;20044;-73
2021/09/01 07:30:31;;;;;;;8.52;6.40;;;18.20;64.80;;;;;;5034732;28;20680;-73
2021/09/01 07:32:57;;;;;;;8.10;6.15;;;18.30;64.20;;;;;;5036221;28;20052;-73
2021/09/01 07:35:24;;;;;;;7.78;5.75;;;18.30;64.10;;;;;;5035538;28;20479;-74
2021/09/01 07:37:52;;;;;;;13.32;6.57;;;18.40;64.00;;;;;;5035502;28;20021;-74
2021/09/01 07:40:20;;;;;;;12.82;6.22;;;18.40;63.40;;;;;;5035920;28;20017;-74
2021/09/01 07:42:46;;;;;;;9.32;6.70;;;18.50;64.00;;;;;;5035846;28;20072;-74
2021/09/01 07:45:14;;;;;;;8.07;6.03;;;18.50;63.90;;;;;;5033743;28;20033;-74
2021/09/01 07:47:51;;;;;;;7.78;5.65;;;18.60;64.00;;;;;;5035907;28;20104;-74
2021/09/01 07:50:19;;;;;;;14.73;6.75;;;18.70;64.10;;;;;;5033595;28;20509;-74
2021/09/01 07:52:44;;;;;;;8.32;6.35;;;18.70;63.70;;;;;;5035637;28;20533;-74
2021/09/01 07:55:11;;;;;;;7.88;5.70;;;18.80;63.70;;;;;;5034932;28;20029;-74
2021/09/01 07:57:37;;;;;;;8.82;5.85;;;18.90;63.90;;;;;;5035872;28;20424;-74
2021/09/01 08:00:05;;;;;;;9.18;5.55;;;18.90;63.70;;;;;;5034356;28;20104;-74
2021/09/01 08:02:31;;;;;;;10.10;5.75;;;19.00;62.90;;;;;;5035688;28;20029;-74
2021/09/01 08:04:56;;;;;;;7.47;5.82;;;19.10;62.80;;;;;;5035721;28;20029;-75
2021/09/01 08:07:22;;;;;;;8.55;5.57;;;19.10;62.40;;;;;;5035603;28;20033;-74
2021/09/01 08:09:48;;;;;;;9.80;5.82;;;19.20;61.90;;;;;;5035563;28;20030;-74
2021/09/01 08:12:14;;;;;;;10.43;5.60;;;19.20;61.40;;;;;;5037202;28;20037;-74
2021/09/01 08:14:40;;;;;;;9.77;5.38;;;19.30;60.80;;;;;;5049919;28;20033;-74
2021/09/01 08:17:05;;;;;;;7.65;5.43;;;19.30;60.50;;;;;;5035302;28;20514;-74
2021/09/01 08:19:31;;;;;;;6.28;4.50;;;19.40;60.60;;;;;;5035345;28;20426;-74
2021/09/01 08:21:57;;;;;;;7.55;5.47;;;19.50;60.30;;;;;;5034734;28;20028;-74
2021/09/01 08:24:23;;;;;;;7.95;4.65;;;19.50;60.70;;;;;;5033929;28;20021;-74
2021/09/01 08:26:48;;;;;;;7.05;5.30;;;19.60;60.50;;;;;;5034442;28;20028;-74
2021/09/01 08:29:14;;;;;;;9.23;4.85;;;19.70;60.80;;;;;;5038452;28;20037;-74
2021/09/01 08:31:40;;;;;;;8.18;4.60;;;19.80;60.50;;;;;;5054865;28;20037;-74
2021/09/01 08:34:06;;;;;;;7.85;4.68;;;19.90;58.70;;;;;;5054713;28;20112;-74
2021/09/01 08:36:32;;;;;;;7.72;5.15;;;19.90;58.60;;;;;;5054011;28;20475;-74
2021/09/01 08:38:58;;;;;;;10.20;6.38;;;20.00;58.60;;;;;;5052159;28;20374;-74
2021/09/01 08:41:24;;;;;;;8.38;5.50;;;20.00;58.30;;;;;;5036522;28;20025;-74
2021/09/01 08:43:50;;;;;;;6.35;4.80;;;20.10;58.50;;;;;;5054351;28;20029;-74
2021/09/01 08:46:16;;;;;;;8.15;5.03;;;20.20;58.40;;;;;;5042892;28;20497;-74
2021/09/01 08:48:42;;;;;;;7.65;4.20;;;20.20;58.00;;;;;;5036914;28;20071;-74
2021/09/01 08:51:08;;;;;;;5.10;3.67;;;20.30;57.70;;;;;;5054211;28;20029;-74
2021/09/01 08:53:39;;;;;;;6.63;4.43;;;20.40;57.20;;;;;;5036729;28;20031;-74
2021/09/01 08:56:04;;;;;;;5.43;3.92;;;20.50;57.20;;;;;;5054118;28;20021;-74
2021/09/01 08:58:30;;;;;;;8.15;4.80;;;20.50;56.90;;;;;;5053621;28;20025;-74
2021/09/01 09:00:56;;;;;;;5.43;4.20;;;20.60;55.80;;;;;;5053179;28;20021;-74
2021/09/01 09:03:25;;;;;;;8.68;4.50;;;20.70;56.20;;;;;;5054234;28;20013;-74
2021/09/01 09:05:51;;;;;;;4.68;3.70;;;20.70;55.40;;;;;;5053887;28;20033;-74
2021/09/01 09:08:16;;;;;;;8.10;3.70;;;20.80;55.30;;;;;;5054214;28;20024;-74
2021/09/01 09:10:45;;;;;;;6.35;3.97;;;20.80;54.80;;;;;;5053237;28;20033;-75
2021/09/01 09:13:12;;;;;;;6.55;3.65;;;20.90;54.90;;;;;;5053711;28;20099;-74
2021/09/01 09:15:39;;;;;;;4.97;3.75;;;20.90;53.60;;;;;;5052192;28;20056;-74
2021/09/01 09:18:29;;;;;;;6.53;4.63;;;20.90;53.90;;;;;;5052181;28;20032;-74
2021/09/01 09:21:15;;;;;;;5.30;3.78;;;21.00;54.40;;;;;;5053952;28;20115;-76
2021/09/01 09:23:42;;;;;;;7.03;4.10;;;21.10;53.80;;;;;;5053757;28;20096;-75
2021/09/01 09:26:25;;;;;;;7.63;3.75;;;21.10;53.90;;;;;;5053614;28;20028;-75
2021/09/01 09:29:14;;;;;;;7.20;4.78;;;21.10;54.00;;;;;;5053613;28;20025;-76
2021/09/01 09:31:43;;;;;;;6.63;3.35;;;21.20;53.90;;;;;;5053677;28;20055;-76
2021/09/01 09:34:18;;;;;;;6.80;4.28;;;21.30;52.40;;;;;;5053334;28;20108;-76
2021/09/01 09:37:11;;;;;;;7.97;4.03;;;21.30;52.50;;;;;;5053344;28;20080;-76
2021/09/01 09:39:45;;;;;;;5.18;3.72;;;21.40;53.20;;;;;;5052486;28;20021;-75
2021/09/01 09:42:13;;;;;;;4.93;3.40;;;21.60;51.40;;;;;;5053527;28;20078;-75
2021/09/01 09:44:39;;;;;;;5.10;3.63;;;21.70;49.30;;;;;;5053235;28;20029;-75
2021/09/01 09:47:05;;;;;;;6.18;3.42;;;21.80;49.70;;;;;;5053227;28;20025;-75
2021/09/01 09:49:33;;;;;;;5.93;3.58;;;22.00;48.60;;;;;;5053498;28;20056;-75
2021/09/01 09:52:00;;;;;;;7.32;3.85;;;22.20;48.70;;;;;;5053230;28;20055;-75
2021/09/01 09:54:27;;;;;;;12.05;3.42;;;22.30;48.50;;;;;;5052963;28;20028;-75
2021/09/01 09:57:08;;;;;;;5.38;3.90;;;22.40;48.20;;;;;;5050818;28;20029;-75
2021/09/01 09:59:35;;;;;;;5.20;3.22;;;22.50;47.80;;;;;;5052756;28;20029;-75
2021/09/01 10:02:01;;;;;;;7.00;4.22;;;22.60;48.80;;;;;;5052614;28;20041;-75
2021/09/01 10:04:30;;;;;;;4.30;3.25;;;22.70;48.00;;;;;;5053015;28;20071;-75
2021/09/01 10:06:56;;;;;;;6.03;3.20;;;22.90;48.00;;;;;;5053081;28;20116;-75
2021/09/01 10:09:24;;;;;;;5.18;3.38;;;23.00;46.40;;;;;;5052407;28;20111;-75
2021/09/01 10:11:50;;;;;;;4.93;3.25;;;23.20;47.70;;;;;;5036055;28;20039;-76
2021/09/01 10:14:20;;;;;;;3.83;3.10;;;23.30;46.00;;;;;;5053043;28;20116;-75
2021/09/01 10:17:05;;;;;;;5.13;3.25;;;23.40;45.40;;;;;;5052978;28;20061;-76
2021/09/01 10:19:31;;;;;;;4.32;3.15;;;23.50;44.50;;;;;;5052104;28;20402;-76
2021/09/01 10:22:01;;;;;;;7.22;3.42;;;23.50;43.80;;;;;;5032758;28;20029;-76
2021/09/01 10:24:32;;;;;;;7.53;3.38;;;23.40;43.60;;;;;;5048293;28;20025;-76
2021/09/01 10:27:05;;;;;;;4.85;3.50;;;23.40;44.50;;;;;;5051501;28;20021;-76
2021/09/01 10:29:43;;;;;;;4.97;3.42;;;23.30;44.00;;;;;;5051475;28;20041;-75
2021/09/01 10:32:18;;;;;;;3.95;2.90;;;23.20;43.40;;;;;;5049132;28;20100;-75
2021/09/01 10:34:45;;;;;;;6.07;3.40;;;23.10;43.70;;;;;;5054203;28;20059;-75
2021/09/01 10:37:41;;;;;;;6.50;3.40;;;23.10;43.00;;;;;;5054045;28;20033;-75
2021/09/01 10:40:09;;;;;;;3.83;2.92;;;23.10;43.60;;;;;;5051073;28;20024;-75
2021/09/01 10:42:38;;;;;;;4.03;2.70;;;23.10;42.10;;;;;;5034509;28;20025;-75
2021/09/01 10:45:07;;;;;;;4.30;2.70;;;23.10;43.20;;;;;;5051507;28;20035;-75
2021/09/01 10:47:51;;;;;;;3.70;2.58;;;23.20;41.90;;;;;;5036804;28;20029;-75
2021/09/01 10:50:23;;;;;;;4.63;3.50;;;23.20;43.00;;;;;;5056009;28;20514;-75
2021/09/01 10:53:06;;;;;;;4.95;3.38;;;23.30;42.60;;;;;;5055915;28;20432;-75
2021/09/01 10:55:45;;;;;;;3.70;2.90;;;23.40;42.60;;;;;;5055785;28;20025;-75
2021/09/01 10:58:16;;;;;;;4.65;3.15;;;23.50;41.70;;;;;;5042429;28;20035;-75
2021/09/01 11:00:43;;;;;;;12.13;3.55;;;23.50;42.00;;;;;;5055964;28;20021;-75
2021/09/01 11:03:09;;;;;;;5.85;2.78;;;23.40;42.70;;;;;;5055780;28;20020;-75
2021/09/01 11:05:35;;;;;;;4.63;3.28;;;23.40;41.60;;;;;;5055791;28;20446;-75
2021/09/01 11:08:01;;;;;;;5.20;3.05;;;23.40;41.90;;;;;;5055589;28;20104;-75
2021/09/01 11:10:28;;;;;;;6.63;2.90;;;23.40;41.60;;;;;;5055295;28;20364;-75
2021/09/01 11:12:58;;;;;;;5.72;2.70;;;23.50;41.20;;;;;;5055505;28;20056;-75
2021/09/01 11:15:25;;;;;;;5.60;3.22;;;23.50;41.40;;;;;;5037424;28;20037;-75
2021/09/01 11:17:51;;;;;;;3.83;2.95;;;23.70;41.60;;;;;;5039348;28;20083;-75
2021/09/01 11:20:20;;;;;;;6.05;3.03;;;23.80;41.10;;;;;;5056321;28;20025;-75
2021/09/01 11:22:46;;;;;;;5.78;3.50;;;24.00;40.90;;;;;;5056273;28;20025;-75
2021/09/01 11:25:15;;;;;;;5.07;2.92;;;24.10;41.30;;;;;;5056194;28;20079;-76
2021/09/01 11:27:57;;;;;;;5.28;3.47;;;24.30;40.00;;;;;;5055903;28;20021;-76
2021/09/01 11:30:30;;;;;;;11.70;3.83;;;24.50;40.80;;;;;;5055802;28;20053;-77
2021/09/01 11:32:56;;;;;;;6.35;3.15;;;24.60;38.80;;;;;;5055934;28;20055;-74
2021/09/01 11:35:25;;;;;;;6.40;3.22;;;24.70;39.70;;;;;;5055870;28;20033;-77
2021/09/01 11:38:05;;;;;;;4.80;3.53;;;24.80;38.70;;;;;;5055729;28;20025;-77
2021/09/01 11:40:42;;;;;;;4.35;3.08;;;24.90;38.50;;;;;;5055974;28;20389;-77
2021/09/01 11:43:13;;;;;;;6.45;3.40;;;24.90;38.10;;;;;;5052911;28;20021;-77
2021/09/01 11:45:46;;;;;;;5.18;3.53;;;24.90;37.70;;;;;;5055856;28;20027;-76
2021/09/01 11:48:12;;;;;;;7.38;3.42;;;24.80;38.50;;;;;;5055556;28;20083;-77
2021/09/01 11:50:45;;;;;;;7.05;3.63;;;24.80;38.60;;;;;;5055404;28;20029;-77
2021/09/01 11:53:15;;;;;;;6.60;3.63;;;24.60;39.00;;;;;;5055596;28;20033;-76
2021/09/01 11:55:43;;;;;;;8.05;3.75;;;24.60;38.70;;;;;;5054113;28;20029;-77
2021/09/01 11:58:16;;;;;;;3.80;2.78;;;24.50;38.60;;;;;;5054262;28;20355;-77
2021/09/01 12:00:43;;;;;;;5.50;3.92;;;24.50;39.00;;;;;;5055570;28;20028;-76
2021/09/01 12:03:12;;;;;;;6.68;3.30;;;24.50;38.70;;;;;;5055548;28;20545;-77
2021/09/01 12:05:43;;;;;;;12.82;3.72;;;24.50;38.90;;;;;;5054247;28;20064;-77
2021/09/01 12:08:19;;;;;;;4.47;2.97;;;24.60;38.30;;;;;;5055418;28;20021;-77
2021/09/01 12:10:46;;;;;;;4.05;2.80;;;24.70;38.00;;;;;;5055333;28;20478;-77
2021/09/01 12:13:12;;;;;;;4.28;3.28;;;24.80;38.80;;;;;;5055207;28;20032;-76
2021/09/01 12:15:38;;;;;;;4.10;2.80;;;25.00;38.20;;;;;;5055084;28;20025;-77
2021/09/01 12:18:06;;;;;;;4.53;3.28;;;25.10;37.90;;;;;;5053918;28;20036;-77
2021/09/01 12:20:34;;;;;;;3.75;2.70;;;25.20;36.90;;;;;;5054196;28;20379;-77
2021/09/01 12:23:00;;;;;;;4.53;3.13;;;25.20;38.00;;;;;;5053951;28;20028;-77
2021/09/01 12:25:28;;;;;;;4.53;2.83;;;25.20;37.30;;;;;;5055178;28;20359;-77
2021/09/01 12:28:14;;;;;;;4.93;3.33;;;25.30;37.50;;;;;;5055094;28;20482;-77
2021/09/01 12:30:45;;;;;;;5.13;3.10;;;25.30;37.70;;;;;;5053395;28;20060;-77
2021/09/01 12:33:13;;;;;;;3.65;2.85;;;25.40;37.30;;;;;;5035221;28;20033;-77
2021/09/01 12:35:40;;;;;;;4.28;3.50;;;25.50;36.80;;;;;;5034953;28;20029;-77
2021/09/01 12:38:07;;;;;;;4.65;3.13;;;25.60;36.30;;;;;;5035032;28;20029;-77
2021/09/01 12:40:37;;;;;;;5.03;3.30;;;25.70;37.60;;;;;;5034930;28;20022;-76
2021/09/01 12:43:09;;;;;;;4.07;2.45;;;25.90;36.30;;;;;;5034809;28;20075;-76
2021/09/01 12:45:37;;;;;;;3.83;2.97;;;26.10;36.90;;;;;;5034733;28;20025;-76
2021/09/01 12:48:17;;;;;;;10.07;3.28;;;26.10;34.80;;;;;;5034649;28;20510;-77